Christchurch International Airport
NZCH : now visible

Airfield :











YOU CAN JOIN US ON...

 
LOGIN :

Register | Disclaimer

   EN    FR    IT 

 









Legend :    VFR   Marginal VFR   IFR   Intensive IFR   Very Intensive IFR
Visi :
Ceiling :
>= 8 km
>= 3000ft
5 to 8 km
1000 to 3000 ft
1500m to 5 km
500 to 1000 ft
800 to 1500m
200 to 500 ft
< 800m
< 200 ft
Symbols :   Thunderstorms  Fog  Heavy snow  Heavy precipitations  Wind > 20 kt






- Airport Elevation : 123 ft
- IATA code : CHC


NZCH - Christchurch International

CURRENT METAR :
  • 280830Z AUTO 18009KT 140V210 9999 FEW028/// BKN047/// OVC055/// 12/07 Q1010 NOSIG

EXPIRED METARs :
  • 280800Z AUTO 17010KT 140V200 9999 FEW027/// BKN040/// BKN047/// 13/08 Q1010 NOSIG
  • 280730Z AUTO 17011KT 140V200 9999 SCT039/// BKN046/// 13/07 Q1009 NOSIG
  • 280700Z AUTO 16014KT 9999 BKN050/// BKN065/// 13/08 Q1009 NOSIG
  • 280630Z AUTO 17011KT 140V210 9999 FEW047/// BKN070/// BKN085/// 14/08 Q1009 NOSIG
  • 280600Z AUTO 17010KT 140V200 9999 FEW039/// OVC060/// 14/09 Q1008 NOSIG

TAF TAF NZCH
Valid from the 28 at 06:00 until the 29 at 06:00 UTC


280504Z 2806/2906 32005KT 9999 SCT050
BECMG 2806/2808 22010KT
BECMG 2822/2900 24015G25KT
NZZC FIR / Oceania



MET'MAP, your aeronautical weather chart ! - Copyright ORBIFLY December 2007 - Disclaimer

ORBIFLY MET'MAP TEAM :

Programming & Development : Alexandra Zaïnal
Concept & original design : Baudouin d'Aumeries
Assistance for programming : Marc-Olivier Méhu
Technical & hardware support : Manuel Goepfert

Contact : metmap@orbifly.com




SOURCES & CREDITS :

   NOAA       Earth
Advisory